<?xml version="1.0" encoding="UTF-8" standalone="no" ?>
<gpx xmlns="http://www.topografix.com/GPX/1/1" xmlns:xsi="http://www.w3.org/2001/XMLSchema-instance" xsi:schemaLocation="http://www.topografix.com/GPX/1/1 http://www.topografix.com/GPX/1/1/gpx.xsd" version="1.1" creator="VisuGPX - https://www.visugpx.com">
  <metadata>
    <name>Les gorges du Sègre</name>
    <desc><![CDATA[Petite randonnée familiale en Cerdagne dans la région de Bourg Madame]]></desc>
  </metadata>
  <wpt lat="42.45043" lon="2.0659">
    <ele>1196</ele>
  </wpt>
  <trk>
    <name><![CDATA[Les gorges du Sègre_1]]></name>
    <trkseg>
      <trkpt lat="42.45043" lon="2.0659">
        <ele>1196</ele>
        <time>2011-07-24T12:46:21Z</time>
      </trkpt>
      <trkpt lat="42.45038" lon="2.06601">
        <ele>1196</ele>
        <time>2011-07-24T12:46:31Z</time>
      </trkpt>
      <trkpt lat="42.4503" lon="2.06607">
        <ele>1196</ele>
        <time>2011-07-24T12:46:38Z</time>
      </trkpt>
      <trkpt lat="42.45028" lon="2.0662">
        <ele>1196</ele>
        <time>2011-07-24T12:46:50Z</time>
      </trkpt>
      <trkpt lat="42.45024" lon="2.06631">
        <ele>1196</ele>
        <time>2011-07-24T12:47:03Z</time>
      </trkpt>
      <trkpt lat="42.45019" lon="2.06642">
        <ele>1196</ele>
        <time>2011-07-24T12:47:14Z</time>
      </trkpt>
      <trkpt lat="42.45015" lon="2.06655">
        <ele>1196</ele>
        <time>2011-07-24T12:47:25Z</time>
      </trkpt>
      <trkpt lat="42.45015" lon="2.06667">
        <ele>1196</ele>
        <time>2011-07-24T12:47:35Z</time>
      </trkpt>
      <trkpt lat="42.45014" lon="2.0668">
        <ele>1196</ele>
        <time>2011-07-24T12:47:44Z</time>
      </trkpt>
      <trkpt lat="42.45011" lon="2.06692">
        <ele>1196</ele>
        <time>2011-07-24T12:47:53Z</time>
      </trkpt>
      <trkpt lat="42.45008" lon="2.06704">
        <ele>1196</ele>
        <time>2011-07-24T12:48:03Z</time>
      </trkpt>
      <trkpt lat="42.45008" lon="2.06717">
        <ele>1196</ele>
        <time>2011-07-24T12:48:12Z</time>
      </trkpt>
      <trkpt lat="42.45007" lon="2.06729">
        <ele>1196</ele>
        <time>2011-07-24T12:48:22Z</time>
      </trkpt>
      <trkpt lat="42.45004" lon="2.06741">
        <ele>1196</ele>
        <time>2011-07-24T12:48:32Z</time>
      </trkpt>
      <trkpt lat="42.44996" lon="2.06751">
        <ele>1196</ele>
        <time>2011-07-24T12:48:44Z</time>
      </trkpt>
      <trkpt lat="42.4498" lon="2.06757">
        <ele>1196</ele>
        <time>2011-07-24T12:48:55Z</time>
      </trkpt>
      <trkpt lat="42.44982" lon="2.0677">
        <ele>1196</ele>
        <time>2011-07-24T12:49:05Z</time>
      </trkpt>
      <trkpt lat="42.4498" lon="2.06782">
        <ele>1196</ele>
        <time>2011-07-24T12:49:15Z</time>
      </trkpt>
      <trkpt lat="42.44995" lon="2.06785">
        <ele>1196</ele>
        <time>2011-07-24T12:49:22Z</time>
      </trkpt>
      <trkpt lat="42.44985" lon="2.0679">
        <ele>1196</ele>
        <time>2011-07-24T12:49:24Z</time>
      </trkpt>
      <trkpt lat="42.44977" lon="2.068">
        <ele>1196</ele>
        <time>2011-07-24T12:49:28Z</time>
      </trkpt>
      <trkpt lat="42.44979" lon="2.06814">
        <ele>1196</ele>
        <time>2011-07-24T12:49:39Z</time>
      </trkpt>
      <trkpt lat="42.44977" lon="2.06826">
        <ele>1196</ele>
        <time>2011-07-24T12:49:50Z</time>
      </trkpt>
      <trkpt lat="42.44976" lon="2.06839">
        <ele>1196</ele>
        <time>2011-07-24T12:50:01Z</time>
      </trkpt>
      <trkpt lat="42.44974" lon="2.06851">
        <ele>1196</ele>
        <time>2011-07-24T12:50:11Z</time>
      </trkpt>
      <trkpt lat="42.44971" lon="2.06863">
        <ele>1196</ele>
        <time>2011-07-24T12:50:20Z</time>
      </trkpt>
      <trkpt lat="42.44966" lon="2.06874">
        <ele>1196</ele>
        <time>2011-07-24T12:50:29Z</time>
      </trkpt>
      <trkpt lat="42.44964" lon="2.06887">
        <ele>1196</ele>
        <time>2011-07-24T12:50:36Z</time>
      </trkpt>
      <trkpt lat="42.44968" lon="2.06899">
        <ele>1196</ele>
        <time>2011-07-24T12:50:43Z</time>
      </trkpt>
      <trkpt lat="42.44963" lon="2.06911">
        <ele>1196</ele>
        <time>2011-07-24T12:50:52Z</time>
      </trkpt>
      <trkpt lat="42.44972" lon="2.06909">
        <ele>1196</ele>
        <time>2011-07-24T12:50:55Z</time>
      </trkpt>
      <trkpt lat="42.44972" lon="2.06922">
        <ele>1196</ele>
        <time>2011-07-24T12:51:03Z</time>
      </trkpt>
      <trkpt lat="42.44976" lon="2.06933">
        <ele>1196</ele>
        <time>2011-07-24T12:51:12Z</time>
      </trkpt>
      <trkpt lat="42.4498" lon="2.06945">
        <ele>1196</ele>
        <time>2011-07-24T12:51:23Z</time>
      </trkpt>
      <trkpt lat="42.4498" lon="2.06958">
        <ele>1196</ele>
        <time>2011-07-24T12:51:32Z</time>
      </trkpt>
      <trkpt lat="42.44976" lon="2.06969">
        <ele>1196</ele>
        <time>2011-07-24T12:51:41Z</time>
      </trkpt>
      <trkpt lat="42.44972" lon="2.06982">
        <ele>1196</ele>
        <time>2011-07-24T12:51:52Z</time>
      </trkpt>
      <trkpt lat="42.44876" lon="2.06966">
        <ele>1463</ele>
        <time>2011-07-24T12:52:02Z</time>
      </trkpt>
      <trkpt lat="42.44869" lon="2.06973">
        <ele>1456</ele>
        <time>2011-07-24T12:52:46Z</time>
      </trkpt>
      <trkpt lat="42.44861" lon="2.0698">
        <ele>1456</ele>
        <time>2011-07-24T12:52:58Z</time>
      </trkpt>
      <trkpt lat="42.44853" lon="2.06988">
        <ele>1456</ele>
        <time>2011-07-24T12:53:11Z</time>
      </trkpt>
      <trkpt lat="42.44847" lon="2.06998">
        <ele>1456</ele>
        <time>2011-07-24T12:53:22Z</time>
      </trkpt>
      <trkpt lat="42.44843" lon="2.07011">
        <ele>1456</ele>
        <time>2011-07-24T12:53:30Z</time>
      </trkpt>
      <trkpt lat="42.44837" lon="2.07023">
        <ele>1456</ele>
        <time>2011-07-24T12:53:38Z</time>
      </trkpt>
      <trkpt lat="42.44837" lon="2.07037">
        <ele>1456</ele>
        <time>2011-07-24T12:53:47Z</time>
      </trkpt>
      <trkpt lat="42.44834" lon="2.07048">
        <ele>1456</ele>
        <time>2011-07-24T12:53:56Z</time>
      </trkpt>
      <trkpt lat="42.44833" lon="2.07061">
        <ele>1456</ele>
        <time>2011-07-24T12:54:06Z</time>
      </trkpt>
      <trkpt lat="42.44829" lon="2.07073">
        <ele>1468</ele>
        <time>2011-07-24T12:54:16Z</time>
      </trkpt>
      <trkpt lat="42.44826" lon="2.07084">
        <ele>1468</ele>
        <time>2011-07-24T12:54:26Z</time>
      </trkpt>
      <trkpt lat="42.44819" lon="2.07093">
        <ele>1474</ele>
        <time>2011-07-24T12:54:34Z</time>
      </trkpt>
      <trkpt lat="42.44814" lon="2.07103">
        <ele>1474</ele>
        <time>2011-07-24T12:54:45Z</time>
      </trkpt>
      <trkpt lat="42.44806" lon="2.0711">
        <ele>1474</ele>
        <time>2011-07-24T12:55:03Z</time>
      </trkpt>
      <trkpt lat="42.44798" lon="2.07116">
        <ele>1482</ele>
        <time>2011-07-24T12:55:10Z</time>
      </trkpt>
      <trkpt lat="42.44788" lon="2.07119">
        <ele>1498</ele>
        <time>2011-07-24T12:55:22Z</time>
      </trkpt>
      <trkpt lat="42.44778" lon="2.07124">
        <ele>1498</ele>
        <time>2011-07-24T12:55:29Z</time>
      </trkpt>
      <trkpt lat="42.4477" lon="2.07131">
        <ele>1492</ele>
        <time>2011-07-24T12:55:37Z</time>
      </trkpt>
      <trkpt lat="42.44764" lon="2.0714">
        <ele>1486</ele>
        <time>2011-07-24T12:55:45Z</time>
      </trkpt>
      <trkpt lat="42.44758" lon="2.07151">
        <ele>1486</ele>
        <time>2011-07-24T12:55:53Z</time>
      </trkpt>
      <trkpt lat="42.44756" lon="2.07163">
        <ele>1486</ele>
        <time>2011-07-24T12:56:02Z</time>
      </trkpt>
      <trkpt lat="42.44758" lon="2.07175">
        <ele>1497</ele>
        <time>2011-07-24T12:56:12Z</time>
      </trkpt>
      <trkpt lat="42.44761" lon="2.07187">
        <ele>1509</ele>
        <time>2011-07-24T12:56:22Z</time>
      </trkpt>
      <trkpt lat="42.44757" lon="2.07198">
        <ele>1532</ele>
        <time>2011-07-24T12:56:32Z</time>
      </trkpt>
      <trkpt lat="42.44752" lon="2.07211">
        <ele>1569</ele>
        <time>2011-07-24T12:56:43Z</time>
      </trkpt>
      <trkpt lat="42.44756" lon="2.07223">
        <ele>1580</ele>
        <time>2011-07-24T12:56:56Z</time>
      </trkpt>
      <trkpt lat="42.44763" lon="2.07232">
        <ele>1555</ele>
        <time>2011-07-24T12:57:04Z</time>
      </trkpt>
      <trkpt lat="42.44771" lon="2.07239">
        <ele>1510</ele>
        <time>2011-07-24T12:57:16Z</time>
      </trkpt>
      <trkpt lat="42.4477" lon="2.07225">
        <ele>1510</ele>
        <time>2011-07-24T12:57:37Z</time>
      </trkpt>
      <trkpt lat="42.44762" lon="2.07217">
        <ele>1510</ele>
        <time>2011-07-24T12:57:46Z</time>
      </trkpt>
      <trkpt lat="42.44754" lon="2.07211">
        <ele>1518</ele>
        <time>2011-07-24T12:57:55Z</time>
      </trkpt>
      <trkpt lat="42.44744" lon="2.07211">
        <ele>1518</ele>
        <time>2011-07-24T12:58:00Z</time>
      </trkpt>
      <trkpt lat="42.44736" lon="2.07205">
        <ele>1518</ele>
        <time>2011-07-24T12:58:11Z</time>
      </trkpt>
      <trkpt lat="42.44726" lon="2.07199">
        <ele>1518</ele>
        <time>2011-07-24T12:58:23Z</time>
      </trkpt>
      <trkpt lat="42.44719" lon="2.07192">
        <ele>1528</ele>
        <time>2011-07-24T12:58:37Z</time>
      </trkpt>
      <trkpt lat="42.4471" lon="2.07187">
        <ele>1528</ele>
        <time>2011-07-24T12:58:45Z</time>
      </trkpt>
      <trkpt lat="42.44701" lon="2.07185">
        <ele>1528</ele>
        <time>2011-07-24T12:58:51Z</time>
      </trkpt>
      <trkpt lat="42.44696" lon="2.07174">
        <ele>1528</ele>
        <time>2011-07-24T12:59:02Z</time>
      </trkpt>
      <trkpt lat="42.44702" lon="2.07164">
        <ele>1528</ele>
        <time>2011-07-24T12:59:09Z</time>
      </trkpt>
      <trkpt lat="42.44705" lon="2.07152">
        <ele>1538</ele>
        <time>2011-07-24T12:59:17Z</time>
      </trkpt>
      <trkpt lat="42.44701" lon="2.0714">
        <ele>1549</ele>
        <time>2011-07-24T12:59:27Z</time>
      </trkpt>
      <trkpt lat="42.44693" lon="2.07133">
        <ele>1555</ele>
        <time>2011-07-24T12:59:35Z</time>
      </trkpt>
      <trkpt lat="42.44684" lon="2.0713">
        <ele>1555</ele>
        <time>2011-07-24T12:59:40Z</time>
      </trkpt>
      <trkpt lat="42.44675" lon="2.07126">
        <ele>1555</ele>
        <time>2011-07-24T12:59:45Z</time>
      </trkpt>
      <trkpt lat="42.44676" lon="2.07114">
        <ele>1561</ele>
        <time>2011-07-24T12:59:55Z</time>
      </trkpt>
      <trkpt lat="42.44668" lon="2.07106">
        <ele>1561</ele>
        <time>2011-07-24T13:00:06Z</time>
      </trkpt>
      <trkpt lat="42.44659" lon="2.07104">
        <ele>1561</ele>
        <time>2011-07-24T13:00:13Z</time>
      </trkpt>
      <trkpt lat="42.4465" lon="2.07105">
        <ele>1561</ele>
        <time>2011-07-24T13:00:19Z</time>
      </trkpt>
      <trkpt lat="42.44641" lon="2.07109">
        <ele>1554</ele>
        <time>2011-07-24T13:00:25Z</time>
      </trkpt>
      <trkpt lat="42.44632" lon="2.07115">
        <ele>1549</ele>
        <time>2011-07-24T13:00:30Z</time>
      </trkpt>
      <trkpt lat="42.44625" lon="2.07122">
        <ele>1549</ele>
        <time>2011-07-24T13:00:36Z</time>
      </trkpt>
      <trkpt lat="42.44617" lon="2.0713">
        <ele>1542</ele>
        <time>2011-07-24T13:00:42Z</time>
      </trkpt>
      <trkpt lat="42.44609" lon="2.07137">
        <ele>1536</ele>
        <time>2011-07-24T13:00:48Z</time>
      </trkpt>
      <trkpt lat="42.44602" lon="2.07144">
        <ele>1527</ele>
        <time>2011-07-24T13:00:52Z</time>
      </trkpt>
      <trkpt lat="42.44593" lon="2.07151">
        <ele>1520</ele>
        <time>2011-07-24T13:00:56Z</time>
      </trkpt>
      <trkpt lat="42.44585" lon="2.07155">
        <ele>1520</ele>
        <time>2011-07-24T13:00:59Z</time>
      </trkpt>
      <trkpt lat="42.44577" lon="2.07161">
        <ele>1520</ele>
        <time>2011-07-24T13:01:04Z</time>
      </trkpt>
      <trkpt lat="42.44568" lon="2.07168">
        <ele>1515</ele>
        <time>2011-07-24T13:01:11Z</time>
      </trkpt>
      <trkpt lat="42.4456" lon="2.07174">
        <ele>1515</ele>
        <time>2011-07-24T13:01:19Z</time>
      </trkpt>
      <trkpt lat="42.44553" lon="2.07184">
        <ele>1508</ele>
        <time>2011-07-24T13:01:28Z</time>
      </trkpt>
      <trkpt lat="42.44545" lon="2.07192">
        <ele>1508</ele>
        <time>2011-07-24T13:01:37Z</time>
      </trkpt>
      <trkpt lat="42.44537" lon="2.07201">
        <ele>1508</ele>
        <time>2011-07-24T13:01:46Z</time>
      </trkpt>
      <trkpt lat="42.44535" lon="2.07214">
        <ele>1508</ele>
        <time>2011-07-24T13:01:56Z</time>
      </trkpt>
      <trkpt lat="42.44535" lon="2.07226">
        <ele>1508</ele>
        <time>2011-07-24T13:02:04Z</time>
      </trkpt>
      <trkpt lat="42.44534" lon="2.07239">
        <ele>1526</ele>
        <time>2011-07-24T13:02:14Z</time>
      </trkpt>
      <trkpt lat="42.44533" lon="2.07253">
        <ele>1517</ele>
        <time>2011-07-24T13:02:25Z</time>
      </trkpt>
      <trkpt lat="42.44527" lon="2.07264">
        <ele>1517</ele>
        <time>2011-07-24T13:02:33Z</time>
      </trkpt>
      <trkpt lat="42.44527" lon="2.07276">
        <ele>1509</ele>
        <time>2011-07-24T13:02:43Z</time>
      </trkpt>
      <trkpt lat="42.44535" lon="2.07284">
        <ele>1509</ele>
        <time>2011-07-24T13:02:50Z</time>
      </trkpt>
      <trkpt lat="42.44528" lon="2.07295">
        <ele>1518</ele>
        <time>2011-07-24T13:03:00Z</time>
      </trkpt>
      <trkpt lat="42.44527" lon="2.07308">
        <ele>1518</ele>
        <time>2011-07-24T13:03:05Z</time>
      </trkpt>
      <trkpt lat="42.44534" lon="2.07318">
        <ele>1518</ele>
        <time>2011-07-24T13:03:09Z</time>
      </trkpt>
      <trkpt lat="42.44541" lon="2.07329">
        <ele>1518</ele>
        <time>2011-07-24T13:03:13Z</time>
      </trkpt>
      <trkpt lat="42.4455" lon="2.07339">
        <ele>1518</ele>
        <time>2011-07-24T13:03:18Z</time>
      </trkpt>
      <trkpt lat="42.44547" lon="2.07351">
        <ele>1528</ele>
        <time>2011-07-24T13:03:33Z</time>
      </trkpt>
      <trkpt lat="42.44544" lon="2.07363">
        <ele>1551</ele>
        <time>2011-07-24T13:03:45Z</time>
      </trkpt>
      <trkpt lat="42.44539" lon="2.07373">
        <ele>1568</ele>
        <time>2011-07-24T13:03:57Z</time>
      </trkpt>
      <trkpt lat="42.44539" lon="2.07386">
        <ele>1579</ele>
        <time>2011-07-24T13:04:11Z</time>
      </trkpt>
      <trkpt lat="42.4454" lon="2.07399">
        <ele>1579</ele>
        <time>2011-07-24T13:04:22Z</time>
      </trkpt>
      <trkpt lat="42.44548" lon="2.07406">
        <ele>1565</ele>
        <time>2011-07-24T13:04:33Z</time>
      </trkpt>
      <trkpt lat="42.44556" lon="2.07413">
        <ele>1546</ele>
        <time>2011-07-24T13:04:41Z</time>
      </trkpt>
      <trkpt lat="42.44557" lon="2.07426">
        <ele>1524</ele>
        <time>2011-07-24T13:04:54Z</time>
      </trkpt>
      <trkpt lat="42.44551" lon="2.07436">
        <ele>1524</ele>
        <time>2011-07-24T13:05:05Z</time>
      </trkpt>
      <trkpt lat="42.44544" lon="2.07444">
        <ele>1524</ele>
        <time>2011-07-24T13:05:15Z</time>
      </trkpt>
      <trkpt lat="42.44537" lon="2.07453">
        <ele>1517</ele>
        <time>2011-07-24T13:05:24Z</time>
      </trkpt>
      <trkpt lat="42.44529" lon="2.07462">
        <ele>1517</ele>
        <time>2011-07-24T13:05:34Z</time>
      </trkpt>
      <trkpt lat="42.44524" lon="2.07473">
        <ele>1517</ele>
        <time>2011-07-24T13:05:43Z</time>
      </trkpt>
      <trkpt lat="42.44519" lon="2.07484">
        <ele>1517</ele>
        <time>2011-07-24T13:05:51Z</time>
      </trkpt>
      <trkpt lat="42.44513" lon="2.07494">
        <ele>1523</ele>
        <time>2011-07-24T13:05:59Z</time>
      </trkpt>
      <trkpt lat="42.44508" lon="2.07505">
        <ele>1523</ele>
        <time>2011-07-24T13:06:08Z</time>
      </trkpt>
      <trkpt lat="42.44502" lon="2.07515">
        <ele>1531</ele>
        <time>2011-07-24T13:06:18Z</time>
      </trkpt>
      <trkpt lat="42.44493" lon="2.07523">
        <ele>1549</ele>
        <time>2011-07-24T13:06:33Z</time>
      </trkpt>
      <trkpt lat="42.44483" lon="2.07527">
        <ele>1549</ele>
        <time>2011-07-24T13:06:38Z</time>
      </trkpt>
      <trkpt lat="42.44475" lon="2.07532">
        <ele>1555</ele>
        <time>2011-07-24T13:06:44Z</time>
      </trkpt>
      <trkpt lat="42.44466" lon="2.07536">
        <ele>1555</ele>
        <time>2011-07-24T13:06:51Z</time>
      </trkpt>
      <trkpt lat="42.44458" lon="2.07542">
        <ele>1549</ele>
        <time>2011-07-24T13:07:02Z</time>
      </trkpt>
      <trkpt lat="42.44451" lon="2.0755">
        <ele>1549</ele>
        <time>2011-07-24T13:07:11Z</time>
      </trkpt>
      <trkpt lat="42.44444" lon="2.07558">
        <ele>1549</ele>
        <time>2011-07-24T13:07:22Z</time>
      </trkpt>
      <trkpt lat="42.44437" lon="2.07567">
        <ele>1540</ele>
        <time>2011-07-24T13:07:29Z</time>
      </trkpt>
      <trkpt lat="42.4443" lon="2.07576">
        <ele>1540</ele>
        <time>2011-07-24T13:07:38Z</time>
      </trkpt>
      <trkpt lat="42.44423" lon="2.07586">
        <ele>1549</ele>
        <time>2011-07-24T13:07:46Z</time>
      </trkpt>
      <trkpt lat="42.44419" lon="2.07598">
        <ele>1549</ele>
        <time>2011-07-24T13:07:55Z</time>
      </trkpt>
      <trkpt lat="42.44418" lon="2.07611">
        <ele>1549</ele>
        <time>2011-07-24T13:08:04Z</time>
      </trkpt>
      <trkpt lat="42.44418" lon="2.07624">
        <ele>1549</ele>
        <time>2011-07-24T13:08:12Z</time>
      </trkpt>
      <trkpt lat="42.44421" lon="2.07637">
        <ele>1549</ele>
        <time>2011-07-24T13:08:19Z</time>
      </trkpt>
      <trkpt lat="42.44422" lon="2.07649">
        <ele>1554</ele>
        <time>2011-07-24T13:08:29Z</time>
      </trkpt>
      <trkpt lat="42.44418" lon="2.0766">
        <ele>1554</ele>
        <time>2011-07-24T13:08:38Z</time>
      </trkpt>
      <trkpt lat="42.4441" lon="2.07667">
        <ele>1554</ele>
        <time>2011-07-24T13:08:52Z</time>
      </trkpt>
      <trkpt lat="42.44401" lon="2.07673">
        <ele>1554</ele>
        <time>2011-07-24T13:09:00Z</time>
      </trkpt>
      <trkpt lat="42.44392" lon="2.07678">
        <ele>1559</ele>
        <time>2011-07-24T13:09:08Z</time>
      </trkpt>
      <trkpt lat="42.44382" lon="2.07682">
        <ele>1567</ele>
        <time>2011-07-24T13:09:16Z</time>
      </trkpt>
      <trkpt lat="42.44374" lon="2.0769">
        <ele>1558</ele>
        <time>2011-07-24T13:09:23Z</time>
      </trkpt>
      <trkpt lat="42.4437" lon="2.07701">
        <ele>1550</ele>
        <time>2011-07-24T13:09:33Z</time>
      </trkpt>
      <trkpt lat="42.44369" lon="2.07714">
        <ele>1550</ele>
        <time>2011-07-24T13:09:42Z</time>
      </trkpt>
      <trkpt lat="42.44368" lon="2.07726">
        <ele>1550</ele>
        <time>2011-07-24T13:09:51Z</time>
      </trkpt>
      <trkpt lat="42.4436" lon="2.07735">
        <ele>1562</ele>
        <time>2011-07-24T13:10:00Z</time>
      </trkpt>
      <trkpt lat="42.44354" lon="2.07744">
        <ele>1567</ele>
        <time>2011-07-24T13:10:08Z</time>
      </trkpt>
      <trkpt lat="42.44355" lon="2.07757">
        <ele>1567</ele>
        <time>2011-07-24T13:10:16Z</time>
      </trkpt>
      <trkpt lat="42.44356" lon="2.0777">
        <ele>1560</ele>
        <time>2011-07-24T13:10:24Z</time>
      </trkpt>
      <trkpt lat="42.44356" lon="2.07782">
        <ele>1565</ele>
        <time>2011-07-24T13:10:33Z</time>
      </trkpt>
      <trkpt lat="42.44352" lon="2.07795">
        <ele>1578</ele>
        <time>2011-07-24T13:10:42Z</time>
      </trkpt>
      <trkpt lat="42.44348" lon="2.07806">
        <ele>1578</ele>
        <time>2011-07-24T13:10:52Z</time>
      </trkpt>
      <trkpt lat="42.44341" lon="2.07815">
        <ele>1571</ele>
        <time>2011-07-24T13:11:08Z</time>
      </trkpt>
      <trkpt lat="42.44332" lon="2.07817">
        <ele>1571</ele>
        <time>2011-07-24T13:11:13Z</time>
      </trkpt>
      <trkpt lat="42.44322" lon="2.07818">
        <ele>1566</ele>
        <time>2011-07-24T13:11:20Z</time>
      </trkpt>
      <trkpt lat="42.44313" lon="2.07819">
        <ele>1566</ele>
        <time>2011-07-24T13:11:29Z</time>
      </trkpt>
      <trkpt lat="42.44303" lon="2.0782">
        <ele>1572</ele>
        <time>2011-07-24T13:11:34Z</time>
      </trkpt>
      <trkpt lat="42.44294" lon="2.07823">
        <ele>1572</ele>
        <time>2011-07-24T13:11:42Z</time>
      </trkpt>
      <trkpt lat="42.44285" lon="2.07825">
        <ele>1562</ele>
        <time>2011-07-24T13:11:53Z</time>
      </trkpt>
      <trkpt lat="42.44277" lon="2.07834">
        <ele>1551</ele>
        <time>2011-07-24T13:12:07Z</time>
      </trkpt>
      <trkpt lat="42.4427" lon="2.07843">
        <ele>1560</ele>
        <time>2011-07-24T13:12:17Z</time>
      </trkpt>
      <trkpt lat="42.44263" lon="2.07851">
        <ele>1566</ele>
        <time>2011-07-24T13:12:27Z</time>
      </trkpt>
      <trkpt lat="42.44255" lon="2.0786">
        <ele>1566</ele>
        <time>2011-07-24T13:12:36Z</time>
      </trkpt>
      <trkpt lat="42.44249" lon="2.07871">
        <ele>1560</ele>
        <time>2011-07-24T13:12:47Z</time>
      </trkpt>
      <trkpt lat="42.44239" lon="2.07874">
        <ele>1560</ele>
        <time>2011-07-24T13:12:52Z</time>
      </trkpt>
      <trkpt lat="42.44234" lon="2.07885">
        <ele>1560</ele>
        <time>2011-07-24T13:13:02Z</time>
      </trkpt>
      <trkpt lat="42.44229" lon="2.07895">
        <ele>1565</ele>
        <time>2011-07-24T13:13:11Z</time>
      </trkpt>
      <trkpt lat="42.4422" lon="2.07899">
        <ele>1576</ele>
        <time>2011-07-24T13:13:27Z</time>
      </trkpt>
      <trkpt lat="42.44219" lon="2.07912">
        <ele>1569</ele>
        <time>2011-07-24T13:13:37Z</time>
      </trkpt>
      <trkpt lat="42.44217" lon="2.07924">
        <ele>1569</ele>
        <time>2011-07-24T13:13:49Z</time>
      </trkpt>
      <trkpt lat="42.44224" lon="2.07934">
        <ele>1554</ele>
        <time>2011-07-24T13:13:59Z</time>
      </trkpt>
      <trkpt lat="42.44215" lon="2.0794">
        <ele>1554</ele>
        <time>2011-07-24T13:14:07Z</time>
      </trkpt>
      <trkpt lat="42.44206" lon="2.07942">
        <ele>1563</ele>
        <time>2011-07-24T13:14:11Z</time>
      </trkpt>
      <trkpt lat="42.44196" lon="2.07943">
        <ele>1563</ele>
        <time>2011-07-24T13:14:21Z</time>
      </trkpt>
      <trkpt lat="42.44186" lon="2.07943">
        <ele>1575</ele>
        <time>2011-07-24T13:14:28Z</time>
      </trkpt>
      <trkpt lat="42.44177" lon="2.07942">
        <ele>1581</ele>
        <time>2011-07-24T13:14:34Z</time>
      </trkpt>
      <trkpt lat="42.44168" lon="2.07938">
        <ele>1581</ele>
        <time>2011-07-24T13:14:45Z</time>
      </trkpt>
      <trkpt lat="42.44158" lon="2.07938">
        <ele>1581</ele>
        <time>2011-07-24T13:14:52Z</time>
      </trkpt>
      <trkpt lat="42.44149" lon="2.07941">
        <ele>1592</ele>
        <time>2011-07-24T13:15:00Z</time>
      </trkpt>
      <trkpt lat="42.44149" lon="2.07955">
        <ele>1581</ele>
        <time>2011-07-24T13:15:09Z</time>
      </trkpt>
      <trkpt lat="42.44149" lon="2.07968">
        <ele>1569</ele>
        <time>2011-07-24T13:15:17Z</time>
      </trkpt>
      <trkpt lat="42.44141" lon="2.07974">
        <ele>1569</ele>
        <time>2011-07-24T13:15:22Z</time>
      </trkpt>
      <trkpt lat="42.44136" lon="2.07984">
        <ele>1569</ele>
        <time>2011-07-24T13:15:31Z</time>
      </trkpt>
      <trkpt lat="42.44132" lon="2.07996">
        <ele>1569</ele>
        <time>2011-07-24T13:15:41Z</time>
      </trkpt>
      <trkpt lat="42.44129" lon="2.08009">
        <ele>1569</ele>
        <time>2011-07-24T13:15:51Z</time>
      </trkpt>
      <trkpt lat="42.44126" lon="2.0802">
        <ele>1559</ele>
        <time>2011-07-24T13:16:01Z</time>
      </trkpt>
      <trkpt lat="42.44128" lon="2.08033">
        <ele>1559</ele>
        <time>2011-07-24T13:16:12Z</time>
      </trkpt>
      <trkpt lat="42.44127" lon="2.0802">
        <ele>1545</ele>
        <time>2011-07-24T13:17:59Z</time>
      </trkpt>
      <trkpt lat="42.44136" lon="2.08024">
        <ele>1556</ele>
        <time>2011-07-24T13:20:07Z</time>
      </trkpt>
      <trkpt lat="42.44138" lon="2.08012">
        <ele>1563</ele>
        <time>2011-07-24T13:20:18Z</time>
      </trkpt>
      <trkpt lat="42.44147" lon="2.08005">
        <ele>1581</ele>
        <time>2011-07-24T13:20:37Z</time>
      </trkpt>
      <trkpt lat="42.44157" lon="2.08001">
        <ele>1566</ele>
        <time>2011-07-24T13:20:42Z</time>
      </trkpt>
      <trkpt lat="42.44165" lon="2.07998">
        <ele>1560</ele>
        <time>2011-07-24T13:20:49Z</time>
      </trkpt>
      <trkpt lat="42.44174" lon="2.07993">
        <ele>1560</ele>
        <time>2011-07-24T13:21:01Z</time>
      </trkpt>
      <trkpt lat="42.44183" lon="2.0799">
        <ele>1560</ele>
        <time>2011-07-24T13:21:12Z</time>
      </trkpt>
      <trkpt lat="42.44192" lon="2.07987">
        <ele>1560</ele>
        <time>2011-07-24T13:21:21Z</time>
      </trkpt>
      <trkpt lat="42.44201" lon="2.07984">
        <ele>1560</ele>
        <time>2011-07-24T13:21:30Z</time>
      </trkpt>
      <trkpt lat="42.44211" lon="2.07982">
        <ele>1560</ele>
        <time>2011-07-24T13:21:40Z</time>
      </trkpt>
      <trkpt lat="42.4422" lon="2.07981">
        <ele>1566</ele>
        <time>2011-07-24T13:21:50Z</time>
      </trkpt>
      <trkpt lat="42.44229" lon="2.07977">
        <ele>1566</ele>
        <time>2011-07-24T13:22:02Z</time>
      </trkpt>
      <trkpt lat="42.44238" lon="2.07974">
        <ele>1566</ele>
        <time>2011-07-24T13:23:17Z</time>
      </trkpt>
      <trkpt lat="42.44247" lon="2.07969">
        <ele>1571</ele>
        <time>2011-07-24T13:23:26Z</time>
      </trkpt>
      <trkpt lat="42.44255" lon="2.07965">
        <ele>1571</ele>
        <time>2011-07-24T13:23:35Z</time>
      </trkpt>
      <trkpt lat="42.44264" lon="2.07959">
        <ele>1571</ele>
        <time>2011-07-24T13:23:44Z</time>
      </trkpt>
      <trkpt lat="42.44272" lon="2.07953">
        <ele>1571</ele>
        <time>2011-07-24T13:23:56Z</time>
      </trkpt>
      <trkpt lat="42.44281" lon="2.07949">
        <ele>1571</ele>
        <time>2011-07-24T13:24:14Z</time>
      </trkpt>
      <trkpt lat="42.44291" lon="2.07948">
        <ele>1571</ele>
        <time>2011-07-24T13:24:24Z</time>
      </trkpt>
      <trkpt lat="42.44301" lon="2.07948">
        <ele>1571</ele>
        <time>2011-07-24T13:24:35Z</time>
      </trkpt>
      <trkpt lat="42.4431" lon="2.07947">
        <ele>1571</ele>
        <time>2011-07-24T13:24:45Z</time>
      </trkpt>
      <trkpt lat="42.44316" lon="2.07938">
        <ele>1579</ele>
        <time>2011-07-24T13:24:57Z</time>
      </trkpt>
      <trkpt lat="42.44318" lon="2.07925">
        <ele>1579</ele>
        <time>2011-07-24T13:25:08Z</time>
      </trkpt>
      <trkpt lat="42.44322" lon="2.07913">
        <ele>1584</ele>
        <time>2011-07-24T13:25:19Z</time>
      </trkpt>
      <trkpt lat="42.44329" lon="2.07905">
        <ele>1584</ele>
        <time>2011-07-24T13:25:33Z</time>
      </trkpt>
      <trkpt lat="42.44338" lon="2.07901">
        <ele>1584</ele>
        <time>2011-07-24T13:25:43Z</time>
      </trkpt>
      <trkpt lat="42.44348" lon="2.07897">
        <ele>1584</ele>
        <time>2011-07-24T13:25:53Z</time>
      </trkpt>
      <trkpt lat="42.44356" lon="2.07894">
        <ele>1584</ele>
        <time>2011-07-24T13:26:02Z</time>
      </trkpt>
      <trkpt lat="42.44366" lon="2.07891">
        <ele>1578</ele>
        <time>2011-07-24T13:26:12Z</time>
      </trkpt>
      <trkpt lat="42.44374" lon="2.07887">
        <ele>1584</ele>
        <time>2011-07-24T13:26:24Z</time>
      </trkpt>
      <trkpt lat="42.44383" lon="2.07883">
        <ele>1589</ele>
        <time>2011-07-24T13:26:35Z</time>
      </trkpt>
      <trkpt lat="42.44392" lon="2.07876">
        <ele>1589</ele>
        <time>2011-07-24T13:26:46Z</time>
      </trkpt>
      <trkpt lat="42.44399" lon="2.07868">
        <ele>1598</ele>
        <time>2011-07-24T13:26:58Z</time>
      </trkpt>
      <trkpt lat="42.44404" lon="2.07858">
        <ele>1598</ele>
        <time>2011-07-24T13:27:08Z</time>
      </trkpt>
      <trkpt lat="42.44403" lon="2.07845">
        <ele>1608</ele>
        <time>2011-07-24T13:27:19Z</time>
      </trkpt>
      <trkpt lat="42.44405" lon="2.07832">
        <ele>1608</ele>
        <time>2011-07-24T13:27:27Z</time>
      </trkpt>
      <trkpt lat="42.44408" lon="2.07819">
        <ele>1608</ele>
        <time>2011-07-24T13:27:36Z</time>
      </trkpt>
      <trkpt lat="42.44411" lon="2.07807">
        <ele>1608</ele>
        <time>2011-07-24T13:27:46Z</time>
      </trkpt>
      <trkpt lat="42.44414" lon="2.07796">
        <ele>1601</ele>
        <time>2011-07-24T13:27:56Z</time>
      </trkpt>
      <trkpt lat="42.44419" lon="2.07785">
        <ele>1601</ele>
        <time>2011-07-24T13:28:06Z</time>
      </trkpt>
      <trkpt lat="42.44428" lon="2.07779">
        <ele>1590</ele>
        <time>2011-07-24T13:28:28Z</time>
      </trkpt>
      <trkpt lat="42.44438" lon="2.07776">
        <ele>1590</ele>
        <time>2011-07-24T13:28:37Z</time>
      </trkpt>
      <trkpt lat="42.44447" lon="2.07777">
        <ele>1590</ele>
        <time>2011-07-24T13:28:46Z</time>
      </trkpt>
      <trkpt lat="42.44456" lon="2.07777">
        <ele>1590</ele>
        <time>2011-07-24T13:28:55Z</time>
      </trkpt>
      <trkpt lat="42.44465" lon="2.07773">
        <ele>1600</ele>
        <time>2011-07-24T13:29:08Z</time>
      </trkpt>
      <trkpt lat="42.44474" lon="2.07768">
        <ele>1600</ele>
        <time>2011-07-24T13:29:22Z</time>
      </trkpt>
      <trkpt lat="42.44481" lon="2.07762">
        <ele>1600</ele>
        <time>2011-07-24T13:29:46Z</time>
      </trkpt>
      <trkpt lat="42.44489" lon="2.07754">
        <ele>1594</ele>
        <time>2011-07-24T13:29:58Z</time>
      </trkpt>
      <trkpt lat="42.44492" lon="2.07743">
        <ele>1599</ele>
        <time>2011-07-24T13:30:10Z</time>
      </trkpt>
      <trkpt lat="42.44492" lon="2.07729">
        <ele>1599</ele>
        <time>2011-07-24T13:30:23Z</time>
      </trkpt>
      <trkpt lat="42.44493" lon="2.07717">
        <ele>1599</ele>
        <time>2011-07-24T13:30:34Z</time>
      </trkpt>
      <trkpt lat="42.44493" lon="2.07703">
        <ele>1599</ele>
        <time>2011-07-24T13:30:47Z</time>
      </trkpt>
      <trkpt lat="42.44495" lon="2.07691">
        <ele>1599</ele>
        <time>2011-07-24T13:30:59Z</time>
      </trkpt>
      <trkpt lat="42.44499" lon="2.07679">
        <ele>1605</ele>
        <time>2011-07-24T13:31:12Z</time>
      </trkpt>
      <trkpt lat="42.44505" lon="2.07669">
        <ele>1613</ele>
        <time>2011-07-24T13:31:25Z</time>
      </trkpt>
      <trkpt lat="42.44513" lon="2.07662">
        <ele>1604</ele>
        <time>2011-07-24T13:32:39Z</time>
      </trkpt>
      <trkpt lat="42.44523" lon="2.07661">
        <ele>1604</ele>
        <time>2011-07-24T13:33:31Z</time>
      </trkpt>
      <trkpt lat="42.44531" lon="2.07655">
        <ele>1604</ele>
        <time>2011-07-24T13:34:41Z</time>
      </trkpt>
      <trkpt lat="42.44541" lon="2.07652">
        <ele>1604</ele>
        <time>2011-07-24T13:34:52Z</time>
      </trkpt>
      <trkpt lat="42.44549" lon="2.07646">
        <ele>1604</ele>
        <time>2011-07-24T13:35:02Z</time>
      </trkpt>
      <trkpt lat="42.44553" lon="2.07634">
        <ele>1611</ele>
        <time>2011-07-24T13:36:20Z</time>
      </trkpt>
      <trkpt lat="42.44561" lon="2.07625">
        <ele>1611</ele>
        <time>2011-07-24T13:36:29Z</time>
      </trkpt>
      <trkpt lat="42.4457" lon="2.07619">
        <ele>1611</ele>
        <time>2011-07-24T13:36:36Z</time>
      </trkpt>
      <trkpt lat="42.44579" lon="2.07613">
        <ele>1611</ele>
        <time>2011-07-24T13:36:44Z</time>
      </trkpt>
      <trkpt lat="42.44586" lon="2.07604">
        <ele>1611</ele>
        <time>2011-07-24T13:36:52Z</time>
      </trkpt>
      <trkpt lat="42.4459" lon="2.07593">
        <ele>1611</ele>
        <time>2011-07-24T13:37:01Z</time>
      </trkpt>
      <trkpt lat="42.44596" lon="2.07581">
        <ele>1611</ele>
        <time>2011-07-24T13:37:10Z</time>
      </trkpt>
      <trkpt lat="42.44603" lon="2.0757">
        <ele>1611</ele>
        <time>2011-07-24T13:37:18Z</time>
      </trkpt>
      <trkpt lat="42.44611" lon="2.07564">
        <ele>1611</ele>
        <time>2011-07-24T13:37:25Z</time>
      </trkpt>
      <trkpt lat="42.44619" lon="2.07557">
        <ele>1611</ele>
        <time>2011-07-24T13:37:32Z</time>
      </trkpt>
      <trkpt lat="42.44624" lon="2.07546">
        <ele>1611</ele>
        <time>2011-07-24T13:37:40Z</time>
      </trkpt>
      <trkpt lat="42.4463" lon="2.07535">
        <ele>1619</ele>
        <time>2011-07-24T13:37:48Z</time>
      </trkpt>
      <trkpt lat="42.44637" lon="2.07525">
        <ele>1619</ele>
        <time>2011-07-24T13:37:56Z</time>
      </trkpt>
      <trkpt lat="42.44644" lon="2.07519">
        <ele>1619</ele>
        <time>2011-07-24T13:38:04Z</time>
      </trkpt>
      <trkpt lat="42.44653" lon="2.07512">
        <ele>1619</ele>
        <time>2011-07-24T13:38:12Z</time>
      </trkpt>
      <trkpt lat="42.4466" lon="2.07503">
        <ele>1612</ele>
        <time>2011-07-24T13:38:44Z</time>
      </trkpt>
      <trkpt lat="42.44662" lon="2.07491">
        <ele>1612</ele>
        <time>2011-07-24T13:38:55Z</time>
      </trkpt>
      <trkpt lat="42.44667" lon="2.0748">
        <ele>1623</ele>
        <time>2011-07-24T13:39:06Z</time>
      </trkpt>
      <trkpt lat="42.44676" lon="2.07479">
        <ele>1623</ele>
        <time>2011-07-24T13:39:29Z</time>
      </trkpt>
      <trkpt lat="42.44668" lon="2.07483">
        <ele>1611</ele>
        <time>2011-07-24T13:41:21Z</time>
      </trkpt>
      <trkpt lat="42.44676" lon="2.07479">
        <ele>1618</ele>
        <time>2011-07-24T13:43:41Z</time>
      </trkpt>
      <trkpt lat="42.44686" lon="2.0748">
        <ele>1612</ele>
        <time>2011-07-24T13:44:25Z</time>
      </trkpt>
      <trkpt lat="42.44696" lon="2.07481">
        <ele>1612</ele>
        <time>2011-07-24T13:44:34Z</time>
      </trkpt>
      <trkpt lat="42.44705" lon="2.07483">
        <ele>1612</ele>
        <time>2011-07-24T13:44:43Z</time>
      </trkpt>
      <trkpt lat="42.44714" lon="2.07486">
        <ele>1612</ele>
        <time>2011-07-24T13:44:53Z</time>
      </trkpt>
      <trkpt lat="42.44724" lon="2.07484">
        <ele>1612</ele>
        <time>2011-07-24T13:45:02Z</time>
      </trkpt>
      <trkpt lat="42.44733" lon="2.07488">
        <ele>1617</ele>
        <time>2011-07-24T13:45:35Z</time>
      </trkpt>
      <trkpt lat="42.44743" lon="2.07487">
        <ele>1617</ele>
        <time>2011-07-24T13:45:45Z</time>
      </trkpt>
      <trkpt lat="42.44752" lon="2.07485">
        <ele>1617</ele>
        <time>2011-07-24T13:45:54Z</time>
      </trkpt>
      <trkpt lat="42.44762" lon="2.07484">
        <ele>1617</ele>
        <time>2011-07-24T13:46:03Z</time>
      </trkpt>
      <trkpt lat="42.44772" lon="2.07483">
        <ele>1617</ele>
        <time>2011-07-24T13:46:14Z</time>
      </trkpt>
      <trkpt lat="42.44782" lon="2.07484">
        <ele>1617</ele>
        <time>2011-07-24T13:46:23Z</time>
      </trkpt>
      <trkpt lat="42.44792" lon="2.07486">
        <ele>1617</ele>
        <time>2011-07-24T13:46:33Z</time>
      </trkpt>
      <trkpt lat="42.448" lon="2.07482">
        <ele>1617</ele>
        <time>2011-07-24T13:46:43Z</time>
      </trkpt>
      <trkpt lat="42.4481" lon="2.0748">
        <ele>1610</ele>
        <time>2011-07-24T13:47:21Z</time>
      </trkpt>
      <trkpt lat="42.44819" lon="2.07479">
        <ele>1610</ele>
        <time>2011-07-24T13:47:30Z</time>
      </trkpt>
      <trkpt lat="42.44829" lon="2.07479">
        <ele>1610</ele>
        <time>2011-07-24T13:47:39Z</time>
      </trkpt>
      <trkpt lat="42.44839" lon="2.07477">
        <ele>1610</ele>
        <time>2011-07-24T13:47:49Z</time>
      </trkpt>
      <trkpt lat="42.44848" lon="2.07473">
        <ele>1610</ele>
        <time>2011-07-24T13:47:57Z</time>
      </trkpt>
      <trkpt lat="42.44857" lon="2.0747">
        <ele>1610</ele>
        <time>2011-07-24T13:48:05Z</time>
      </trkpt>
      <trkpt lat="42.44865" lon="2.07466">
        <ele>1610</ele>
        <time>2011-07-24T13:48:12Z</time>
      </trkpt>
      <trkpt lat="42.44874" lon="2.07461">
        <ele>1610</ele>
        <time>2011-07-24T13:48:20Z</time>
      </trkpt>
      <trkpt lat="42.44883" lon="2.07458">
        <ele>1610</ele>
        <time>2011-07-24T13:48:29Z</time>
      </trkpt>
      <trkpt lat="42.44891" lon="2.07452">
        <ele>1610</ele>
        <time>2011-07-24T13:48:38Z</time>
      </trkpt>
      <trkpt lat="42.44899" lon="2.07444">
        <ele>1610</ele>
        <time>2011-07-24T13:48:46Z</time>
      </trkpt>
      <trkpt lat="42.44907" lon="2.07438">
        <ele>1610</ele>
        <time>2011-07-24T13:48:54Z</time>
      </trkpt>
      <trkpt lat="42.44915" lon="2.0743">
        <ele>1610</ele>
        <time>2011-07-24T13:49:02Z</time>
      </trkpt>
      <trkpt lat="42.44923" lon="2.07421">
        <ele>1610</ele>
        <time>2011-07-24T13:49:12Z</time>
      </trkpt>
      <trkpt lat="42.44931" lon="2.07413">
        <ele>1610</ele>
        <time>2011-07-24T13:49:21Z</time>
      </trkpt>
      <trkpt lat="42.44938" lon="2.07404">
        <ele>1610</ele>
        <time>2011-07-24T13:49:30Z</time>
      </trkpt>
      <trkpt lat="42.44945" lon="2.07396">
        <ele>1610</ele>
        <time>2011-07-24T13:49:38Z</time>
      </trkpt>
      <trkpt lat="42.44953" lon="2.07389">
        <ele>1610</ele>
        <time>2011-07-24T13:49:47Z</time>
      </trkpt>
      <trkpt lat="42.44959" lon="2.07379">
        <ele>1610</ele>
        <time>2011-07-24T13:49:55Z</time>
      </trkpt>
      <trkpt lat="42.4496" lon="2.07364">
        <ele>1610</ele>
        <time>2011-07-24T13:50:06Z</time>
      </trkpt>
      <trkpt lat="42.44959" lon="2.07351">
        <ele>1610</ele>
        <time>2011-07-24T13:50:15Z</time>
      </trkpt>
      <trkpt lat="42.44959" lon="2.07338">
        <ele>1610</ele>
        <time>2011-07-24T13:50:24Z</time>
      </trkpt>
      <trkpt lat="42.44961" lon="2.07326">
        <ele>1610</ele>
        <time>2011-07-24T13:50:32Z</time>
      </trkpt>
      <trkpt lat="42.44965" lon="2.07314">
        <ele>1610</ele>
        <time>2011-07-24T13:50:40Z</time>
      </trkpt>
      <trkpt lat="42.44972" lon="2.07305">
        <ele>1610</ele>
        <time>2011-07-24T13:50:48Z</time>
      </trkpt>
      <trkpt lat="42.4498" lon="2.07297">
        <ele>1610</ele>
        <time>2011-07-24T13:50:56Z</time>
      </trkpt>
      <trkpt lat="42.44984" lon="2.07286">
        <ele>1610</ele>
        <time>2011-07-24T13:51:04Z</time>
      </trkpt>
      <trkpt lat="42.44985" lon="2.07274">
        <ele>1610</ele>
        <time>2011-07-24T13:51:12Z</time>
      </trkpt>
      <trkpt lat="42.44982" lon="2.0726">
        <ele>1604</ele>
        <time>2011-07-24T13:51:20Z</time>
      </trkpt>
      <trkpt lat="42.4498" lon="2.07247">
        <ele>1604</ele>
        <time>2011-07-24T13:51:29Z</time>
      </trkpt>
      <trkpt lat="42.4498" lon="2.07233">
        <ele>1604</ele>
        <time>2011-07-24T13:51:38Z</time>
      </trkpt>
      <trkpt lat="42.44982" lon="2.07221">
        <ele>1604</ele>
        <time>2011-07-24T13:51:48Z</time>
      </trkpt>
      <trkpt lat="42.4499" lon="2.07212">
        <ele>1604</ele>
        <time>2011-07-24T13:51:56Z</time>
      </trkpt>
      <trkpt lat="42.44997" lon="2.07204">
        <ele>1604</ele>
        <time>2011-07-24T13:52:04Z</time>
      </trkpt>
      <trkpt lat="42.45004" lon="2.07196">
        <ele>1609</ele>
        <time>2011-07-24T13:52:11Z</time>
      </trkpt>
      <trkpt lat="42.45012" lon="2.07188">
        <ele>1609</ele>
        <time>2011-07-24T13:52:19Z</time>
      </trkpt>
      <trkpt lat="42.4502" lon="2.07179">
        <ele>1609</ele>
        <time>2011-07-24T13:52:28Z</time>
      </trkpt>
      <trkpt lat="42.45027" lon="2.0717">
        <ele>1609</ele>
        <time>2011-07-24T13:52:36Z</time>
      </trkpt>
      <trkpt lat="42.45032" lon="2.0716">
        <ele>1609</ele>
        <time>2011-07-24T13:52:44Z</time>
      </trkpt>
      <trkpt lat="42.45037" lon="2.07149">
        <ele>1609</ele>
        <time>2011-07-24T13:52:52Z</time>
      </trkpt>
      <trkpt lat="42.45042" lon="2.07137">
        <ele>1609</ele>
        <time>2011-07-24T13:53:01Z</time>
      </trkpt>
      <trkpt lat="42.45046" lon="2.07126">
        <ele>1609</ele>
        <time>2011-07-24T13:53:10Z</time>
      </trkpt>
      <trkpt lat="42.45049" lon="2.07114">
        <ele>1609</ele>
        <time>2011-07-24T13:53:18Z</time>
      </trkpt>
      <trkpt lat="42.45051" lon="2.07101">
        <ele>1609</ele>
        <time>2011-07-24T13:53:26Z</time>
      </trkpt>
      <trkpt lat="42.45051" lon="2.07088">
        <ele>1609</ele>
        <time>2011-07-24T13:53:34Z</time>
      </trkpt>
      <trkpt lat="42.4505" lon="2.07074">
        <ele>1609</ele>
        <time>2011-07-24T13:53:42Z</time>
      </trkpt>
      <trkpt lat="42.45048" lon="2.07062">
        <ele>1604</ele>
        <time>2011-07-24T13:53:51Z</time>
      </trkpt>
      <trkpt lat="42.45052" lon="2.07051">
        <ele>1604</ele>
        <time>2011-07-24T13:54:26Z</time>
      </trkpt>
      <trkpt lat="42.45052" lon="2.07038">
        <ele>1609</ele>
        <time>2011-07-24T13:54:35Z</time>
      </trkpt>
      <trkpt lat="42.45049" lon="2.07027">
        <ele>1609</ele>
        <time>2011-07-24T13:54:43Z</time>
      </trkpt>
      <trkpt lat="42.45044" lon="2.07017">
        <ele>1609</ele>
        <time>2011-07-24T13:54:54Z</time>
      </trkpt>
      <trkpt lat="42.45045" lon="2.07004">
        <ele>1615</ele>
        <time>2011-07-24T13:55:11Z</time>
      </trkpt>
      <trkpt lat="42.4505" lon="2.06993">
        <ele>1615</ele>
        <time>2011-07-24T13:55:25Z</time>
      </trkpt>
      <trkpt lat="42.4505" lon="2.06981">
        <ele>1624</ele>
        <time>2011-07-24T13:55:45Z</time>
      </trkpt>
      <trkpt lat="42.45054" lon="2.06968">
        <ele>1624</ele>
        <time>2011-07-24T13:55:58Z</time>
      </trkpt>
      <trkpt lat="42.45055" lon="2.06956">
        <ele>1624</ele>
        <time>2011-07-24T13:56:11Z</time>
      </trkpt>
      <trkpt lat="42.4506" lon="2.06945">
        <ele>1624</ele>
        <time>2011-07-24T13:56:21Z</time>
      </trkpt>
      <trkpt lat="42.45062" lon="2.06932">
        <ele>1624</ele>
        <time>2011-07-24T13:56:29Z</time>
      </trkpt>
      <trkpt lat="42.45064" lon="2.0692">
        <ele>1624</ele>
        <time>2011-07-24T13:56:40Z</time>
      </trkpt>
      <trkpt lat="42.45066" lon="2.06906">
        <ele>1631</ele>
        <time>2011-07-24T13:56:58Z</time>
      </trkpt>
      <trkpt lat="42.45071" lon="2.06896">
        <ele>1631</ele>
        <time>2011-07-24T13:57:10Z</time>
      </trkpt>
      <trkpt lat="42.45072" lon="2.06884">
        <ele>1631</ele>
        <time>2011-07-24T13:57:22Z</time>
      </trkpt>
      <trkpt lat="42.45071" lon="2.06871">
        <ele>1631</ele>
        <time>2011-07-24T13:57:34Z</time>
      </trkpt>
      <trkpt lat="42.45074" lon="2.0686">
        <ele>1637</ele>
        <time>2011-07-24T13:57:45Z</time>
      </trkpt>
      <trkpt lat="42.45079" lon="2.06849">
        <ele>1637</ele>
        <time>2011-07-24T13:57:57Z</time>
      </trkpt>
      <trkpt lat="42.45077" lon="2.06836">
        <ele>1637</ele>
        <time>2011-07-24T13:58:10Z</time>
      </trkpt>
      <trkpt lat="42.45074" lon="2.06825">
        <ele>1637</ele>
        <time>2011-07-24T13:58:21Z</time>
      </trkpt>
      <trkpt lat="42.45075" lon="2.06812">
        <ele>1644</ele>
        <time>2011-07-24T13:58:35Z</time>
      </trkpt>
      <trkpt lat="42.45078" lon="2.068">
        <ele>1644</ele>
        <time>2011-07-24T13:58:45Z</time>
      </trkpt>
      <trkpt lat="42.4508" lon="2.06788">
        <ele>1644</ele>
        <time>2011-07-24T13:58:56Z</time>
      </trkpt>
      <trkpt lat="42.45078" lon="2.06775">
        <ele>1644</ele>
        <time>2011-07-24T13:59:08Z</time>
      </trkpt>
      <trkpt lat="42.45072" lon="2.06765">
        <ele>1644</ele>
        <time>2011-07-24T13:59:19Z</time>
      </trkpt>
      <trkpt lat="42.45067" lon="2.06775">
        <ele>1652</ele>
        <time>2011-07-24T14:05:24Z</time>
      </trkpt>
      <trkpt lat="42.45072" lon="2.06786">
        <ele>1652</ele>
        <time>2011-07-24T14:06:51Z</time>
      </trkpt>
      <trkpt lat="42.45068" lon="2.06798">
        <ele>1652</ele>
        <time>2011-07-24T14:07:02Z</time>
      </trkpt>
      <trkpt lat="42.45062" lon="2.06807">
        <ele>1652</ele>
        <time>2011-07-24T14:07:12Z</time>
      </trkpt>
      <trkpt lat="42.45054" lon="2.06814">
        <ele>1652</ele>
        <time>2011-07-24T14:07:21Z</time>
      </trkpt>
      <trkpt lat="42.45044" lon="2.06814">
        <ele>1652</ele>
        <time>2011-07-24T14:07:31Z</time>
      </trkpt>
      <trkpt lat="42.45052" lon="2.06806">
        <ele>1652</ele>
        <time>2011-07-24T14:08:36Z</time>
      </trkpt>
      <trkpt lat="42.45061" lon="2.06809">
        <ele>1652</ele>
        <time>2011-07-24T14:09:13Z</time>
      </trkpt>
      <trkpt lat="42.45071" lon="2.06809">
        <ele>1646</ele>
        <time>2011-07-24T14:09:23Z</time>
      </trkpt>
      <trkpt lat="42.45072" lon="2.06822">
        <ele>1646</ele>
        <time>2011-07-24T14:10:00Z</time>
      </trkpt>
      <trkpt lat="42.45075" lon="2.06834">
        <ele>1646</ele>
        <time>2011-07-24T14:10:09Z</time>
      </trkpt>
      <trkpt lat="42.45079" lon="2.06845">
        <ele>1640</ele>
        <time>2011-07-24T14:10:20Z</time>
      </trkpt>
      <trkpt lat="42.45076" lon="2.06858">
        <ele>1640</ele>
        <time>2011-07-24T14:10:30Z</time>
      </trkpt>
      <trkpt lat="42.45071" lon="2.06869">
        <ele>1640</ele>
        <time>2011-07-24T14:10:44Z</time>
      </trkpt>
      <trkpt lat="42.45067" lon="2.06881">
        <ele>1640</ele>
        <time>2011-07-24T14:10:54Z</time>
      </trkpt>
      <trkpt lat="42.4507" lon="2.06894">
        <ele>1634</ele>
        <time>2011-07-24T14:11:09Z</time>
      </trkpt>
      <trkpt lat="42.45066" lon="2.06905">
        <ele>1634</ele>
        <time>2011-07-24T14:11:22Z</time>
      </trkpt>
      <trkpt lat="42.45066" lon="2.06918">
        <ele>1628</ele>
        <time>2011-07-24T14:11:34Z</time>
      </trkpt>
      <trkpt lat="42.45061" lon="2.06929">
        <ele>1628</ele>
        <time>2011-07-24T14:11:42Z</time>
      </trkpt>
      <trkpt lat="42.45062" lon="2.06941">
        <ele>1628</ele>
        <time>2011-07-24T14:11:51Z</time>
      </trkpt>
      <trkpt lat="42.45058" lon="2.06954">
        <ele>1628</ele>
        <time>2011-07-24T14:11:59Z</time>
      </trkpt>
      <trkpt lat="42.45054" lon="2.06966">
        <ele>1628</ele>
        <time>2011-07-24T14:12:11Z</time>
      </trkpt>
      <trkpt lat="42.45051" lon="2.06977">
        <ele>1628</ele>
        <time>2011-07-24T14:12:21Z</time>
      </trkpt>
      <trkpt lat="42.45048" lon="2.06989">
        <ele>1621</ele>
        <time>2011-07-24T14:12:34Z</time>
      </trkpt>
      <trkpt lat="42.45046" lon="2.07002">
        <ele>1621</ele>
        <time>2011-07-24T14:12:46Z</time>
      </trkpt>
      <trkpt lat="42.45044" lon="2.07013">
        <ele>1616</ele>
        <time>2011-07-24T14:12:59Z</time>
      </trkpt>
      <trkpt lat="42.45047" lon="2.07026">
        <ele>1611</ele>
        <time>2011-07-24T14:13:13Z</time>
      </trkpt>
      <trkpt lat="42.4505" lon="2.07037">
        <ele>1611</ele>
        <time>2011-07-24T14:13:22Z</time>
      </trkpt>
      <trkpt lat="42.4505" lon="2.07051">
        <ele>1611</ele>
        <time>2011-07-24T14:13:33Z</time>
      </trkpt>
      <trkpt lat="42.45058" lon="2.07058">
        <ele>1611</ele>
        <time>2011-07-24T14:14:35Z</time>
      </trkpt>
      <trkpt lat="42.45062" lon="2.07047">
        <ele>1611</ele>
        <time>2011-07-24T14:14:46Z</time>
      </trkpt>
      <trkpt lat="42.45066" lon="2.07036">
        <ele>1611</ele>
        <time>2011-07-24T14:14:57Z</time>
      </trkpt>
      <trkpt lat="42.45072" lon="2.07026">
        <ele>1604</ele>
        <time>2011-07-24T14:15:07Z</time>
      </trkpt>
      <trkpt lat="42.4508" lon="2.07019">
        <ele>1604</ele>
        <time>2011-07-24T14:15:21Z</time>
      </trkpt>
      <trkpt lat="42.45087" lon="2.07011">
        <ele>1604</ele>
        <time>2011-07-24T14:15:33Z</time>
      </trkpt>
      <trkpt lat="42.45095" lon="2.07004">
        <ele>1599</ele>
        <time>2011-07-24T14:15:45Z</time>
      </trkpt>
      <trkpt lat="42.45104" lon="2.06998">
        <ele>1599</ele>
        <time>2011-07-24T14:16:04Z</time>
      </trkpt>
      <trkpt lat="42.45111" lon="2.06989">
        <ele>1592</ele>
        <time>2011-07-24T14:16:17Z</time>
      </trkpt>
      <trkpt lat="42.45118" lon="2.06979">
        <ele>1592</ele>
        <time>2011-07-24T14:16:34Z</time>
      </trkpt>
      <trkpt lat="42.45126" lon="2.06975">
        <ele>1585</ele>
        <time>2011-07-24T14:16:47Z</time>
      </trkpt>
      <trkpt lat="42.45135" lon="2.06971">
        <ele>1585</ele>
        <time>2011-07-24T14:17:08Z</time>
      </trkpt>
      <trkpt lat="42.4514" lon="2.0696">
        <ele>1585</ele>
        <time>2011-07-24T14:17:23Z</time>
      </trkpt>
      <trkpt lat="42.45147" lon="2.06953">
        <ele>1579</ele>
        <time>2011-07-24T14:17:34Z</time>
      </trkpt>
      <trkpt lat="42.45153" lon="2.06942">
        <ele>1579</ele>
        <time>2011-07-24T14:17:48Z</time>
      </trkpt>
      <trkpt lat="42.45161" lon="2.06932">
        <ele>1579</ele>
        <time>2011-07-24T14:17:58Z</time>
      </trkpt>
      <trkpt lat="42.45168" lon="2.06925">
        <ele>1570</ele>
        <time>2011-07-24T14:18:12Z</time>
      </trkpt>
      <trkpt lat="42.45173" lon="2.06915">
        <ele>1570</ele>
        <time>2011-07-24T14:18:23Z</time>
      </trkpt>
      <trkpt lat="42.45183" lon="2.06911">
        <ele>1564</ele>
        <time>2011-07-24T14:18:42Z</time>
      </trkpt>
      <trkpt lat="42.45191" lon="2.06907">
        <ele>1564</ele>
        <time>2011-07-24T14:19:00Z</time>
      </trkpt>
      <trkpt lat="42.452" lon="2.06912">
        <ele>1564</ele>
        <time>2011-07-24T14:22:23Z</time>
      </trkpt>
      <trkpt lat="42.45208" lon="2.06919">
        <ele>1557</ele>
        <time>2011-07-24T14:22:33Z</time>
      </trkpt>
      <trkpt lat="42.45218" lon="2.06923">
        <ele>1557</ele>
        <time>2011-07-24T14:22:48Z</time>
      </trkpt>
      <trkpt lat="42.45227" lon="2.06919">
        <ele>1557</ele>
        <time>2011-07-24T14:22:58Z</time>
      </trkpt>
      <trkpt lat="42.45237" lon="2.0692">
        <ele>1557</ele>
        <time>2011-07-24T14:23:07Z</time>
      </trkpt>
      <trkpt lat="42.45246" lon="2.06918">
        <ele>1557</ele>
        <time>2011-07-24T14:23:15Z</time>
      </trkpt>
      <trkpt lat="42.45255" lon="2.06914">
        <ele>1550</ele>
        <time>2011-07-24T14:23:25Z</time>
      </trkpt>
      <trkpt lat="42.45262" lon="2.06922">
        <ele>1550</ele>
        <time>2011-07-24T14:23:39Z</time>
      </trkpt>
      <trkpt lat="42.45263" lon="2.0691">
        <ele>1550</ele>
        <time>2011-07-24T14:23:51Z</time>
      </trkpt>
      <trkpt lat="42.45263" lon="2.06922">
        <ele>1550</ele>
        <time>2011-07-24T14:24:06Z</time>
      </trkpt>
      <trkpt lat="42.45273" lon="2.06922">
        <ele>1550</ele>
        <time>2011-07-24T14:24:15Z</time>
      </trkpt>
      <trkpt lat="42.45282" lon="2.06922">
        <ele>1550</ele>
        <time>2011-07-24T14:24:24Z</time>
      </trkpt>
      <trkpt lat="42.45291" lon="2.06926">
        <ele>1550</ele>
        <time>2011-07-24T14:24:35Z</time>
      </trkpt>
      <trkpt lat="42.453" lon="2.0693">
        <ele>1540</ele>
        <time>2011-07-24T14:24:53Z</time>
      </trkpt>
      <trkpt lat="42.45309" lon="2.06931">
        <ele>1540</ele>
        <time>2011-07-24T14:25:05Z</time>
      </trkpt>
      <trkpt lat="42.45309" lon="2.06918">
        <ele>1540</ele>
        <time>2011-07-24T14:25:20Z</time>
      </trkpt>
      <trkpt lat="42.45316" lon="2.06909">
        <ele>1535</ele>
        <time>2011-07-24T14:25:32Z</time>
      </trkpt>
      <trkpt lat="42.45322" lon="2.069">
        <ele>1535</ele>
        <time>2011-07-24T14:25:44Z</time>
      </trkpt>
      <trkpt lat="42.4533" lon="2.06893">
        <ele>1535</ele>
        <time>2011-07-24T14:25:52Z</time>
      </trkpt>
      <trkpt lat="42.45332" lon="2.06881">
        <ele>1535</ele>
        <time>2011-07-24T14:26:02Z</time>
      </trkpt>
      <trkpt lat="42.45331" lon="2.06869">
        <ele>1528</ele>
        <time>2011-07-24T14:26:12Z</time>
      </trkpt>
      <trkpt lat="42.45334" lon="2.06857">
        <ele>1522</ele>
        <time>2011-07-24T14:26:22Z</time>
      </trkpt>
      <trkpt lat="42.45338" lon="2.06845">
        <ele>1513</ele>
        <time>2011-07-24T14:26:37Z</time>
      </trkpt>
      <trkpt lat="42.45336" lon="2.06833">
        <ele>1506</ele>
        <time>2011-07-24T14:26:53Z</time>
      </trkpt>
      <trkpt lat="42.4534" lon="2.06821">
        <ele>1506</ele>
        <time>2011-07-24T14:27:06Z</time>
      </trkpt>
      <trkpt lat="42.45347" lon="2.06809">
        <ele>1506</ele>
        <time>2011-07-24T14:27:15Z</time>
      </trkpt>
      <trkpt lat="42.45352" lon="2.06799">
        <ele>1506</ele>
        <time>2011-07-24T14:27:25Z</time>
      </trkpt>
      <trkpt lat="42.4536" lon="2.06791">
        <ele>1500</ele>
        <time>2011-07-24T14:27:34Z</time>
      </trkpt>
      <trkpt lat="42.45366" lon="2.06781">
        <ele>1500</ele>
        <time>2011-07-24T14:27:45Z</time>
      </trkpt>
      <trkpt lat="42.45373" lon="2.06772">
        <ele>1500</ele>
        <time>2011-07-24T14:27:57Z</time>
      </trkpt>
      <trkpt lat="42.45376" lon="2.06761">
        <ele>1506</ele>
        <time>2011-07-24T14:28:14Z</time>
      </trkpt>
      <trkpt lat="42.45381" lon="2.06748">
        <ele>1506</ele>
        <time>2011-07-24T14:28:23Z</time>
      </trkpt>
      <trkpt lat="42.45385" lon="2.06736">
        <ele>1500</ele>
        <time>2011-07-24T14:28:32Z</time>
      </trkpt>
      <trkpt lat="42.45385" lon="2.06723">
        <ele>1488</ele>
        <time>2011-07-24T14:28:45Z</time>
      </trkpt>
      <trkpt lat="42.45388" lon="2.06711">
        <ele>1488</ele>
        <time>2011-07-24T14:28:54Z</time>
      </trkpt>
      <trkpt lat="42.45391" lon="2.06699">
        <ele>1488</ele>
        <time>2011-07-24T14:29:01Z</time>
      </trkpt>
      <trkpt lat="42.45396" lon="2.06687">
        <ele>1482</ele>
        <time>2011-07-24T14:29:08Z</time>
      </trkpt>
      <trkpt lat="42.45401" lon="2.06675">
        <ele>1482</ele>
        <time>2011-07-24T14:29:18Z</time>
      </trkpt>
      <trkpt lat="42.45403" lon="2.06662">
        <ele>1482</ele>
        <time>2011-07-24T14:29:27Z</time>
      </trkpt>
      <trkpt lat="42.45404" lon="2.06648">
        <ele>1489</ele>
        <time>2011-07-24T14:29:36Z</time>
      </trkpt>
      <trkpt lat="42.45406" lon="2.06636">
        <ele>1494</ele>
        <time>2011-07-24T14:29:46Z</time>
      </trkpt>
      <trkpt lat="42.45413" lon="2.06627">
        <ele>1494</ele>
        <time>2011-07-24T14:29:51Z</time>
      </trkpt>
      <trkpt lat="42.4542" lon="2.0662">
        <ele>1494</ele>
        <time>2011-07-24T14:30:07Z</time>
      </trkpt>
      <trkpt lat="42.45425" lon="2.06607">
        <ele>1502</ele>
        <time>2011-07-24T14:32:23Z</time>
      </trkpt>
      <trkpt lat="42.45426" lon="2.06594">
        <ele>1495</ele>
        <time>2011-07-24T14:32:33Z</time>
      </trkpt>
      <trkpt lat="42.45427" lon="2.06581">
        <ele>1487</ele>
        <time>2011-07-24T14:32:43Z</time>
      </trkpt>
      <trkpt lat="42.45434" lon="2.06574">
        <ele>1487</ele>
        <time>2011-07-24T14:32:50Z</time>
      </trkpt>
      <trkpt lat="42.45441" lon="2.06567">
        <ele>1495</ele>
        <time>2011-07-24T14:32:56Z</time>
      </trkpt>
      <trkpt lat="42.45448" lon="2.06558">
        <ele>1488</ele>
        <time>2011-07-24T14:33:10Z</time>
      </trkpt>
      <trkpt lat="42.45454" lon="2.06547">
        <ele>1483</ele>
        <time>2011-07-24T14:33:19Z</time>
      </trkpt>
      <trkpt lat="42.45459" lon="2.06536">
        <ele>1483</ele>
        <time>2011-07-24T14:33:36Z</time>
      </trkpt>
      <trkpt lat="42.45464" lon="2.06526">
        <ele>1475</ele>
        <time>2011-07-24T14:33:49Z</time>
      </trkpt>
      <trkpt lat="42.45461" lon="2.06515">
        <ele>1464</ele>
        <time>2011-07-24T14:34:16Z</time>
      </trkpt>
      <trkpt lat="42.45455" lon="2.06505">
        <ele>1459</ele>
        <time>2011-07-24T14:34:25Z</time>
      </trkpt>
      <trkpt lat="42.4545" lon="2.06493">
        <ele>1453</ele>
        <time>2011-07-24T14:34:43Z</time>
      </trkpt>
      <trkpt lat="42.45453" lon="2.06481">
        <ele>1453</ele>
        <time>2011-07-24T14:34:58Z</time>
      </trkpt>
      <trkpt lat="42.45446" lon="2.06472">
        <ele>1453</ele>
        <time>2011-07-24T14:36:16Z</time>
      </trkpt>
      <trkpt lat="42.45437" lon="2.06471">
        <ele>1453</ele>
        <time>2011-07-24T14:36:32Z</time>
      </trkpt>
      <trkpt lat="42.45431" lon="2.0646">
        <ele>1443</ele>
        <time>2011-07-24T14:36:43Z</time>
      </trkpt>
      <trkpt lat="42.45433" lon="2.06447">
        <ele>1443</ele>
        <time>2011-07-24T14:36:54Z</time>
      </trkpt>
      <trkpt lat="42.4544" lon="2.06438">
        <ele>1443</ele>
        <time>2011-07-24T14:37:01Z</time>
      </trkpt>
      <trkpt lat="42.45446" lon="2.06428">
        <ele>1443</ele>
        <time>2011-07-24T14:37:05Z</time>
      </trkpt>
      <trkpt lat="42.45455" lon="2.06422">
        <ele>1443</ele>
        <time>2011-07-24T14:37:29Z</time>
      </trkpt>
      <trkpt lat="42.45464" lon="2.06418">
        <ele>1443</ele>
        <time>2011-07-24T14:37:47Z</time>
      </trkpt>
      <trkpt lat="42.45473" lon="2.06412">
        <ele>1443</ele>
        <time>2011-07-24T14:38:00Z</time>
      </trkpt>
      <trkpt lat="42.45483" lon="2.06414">
        <ele>1443</ele>
        <time>2011-07-24T14:38:10Z</time>
      </trkpt>
      <trkpt lat="42.45492" lon="2.06411">
        <ele>1443</ele>
        <time>2011-07-24T14:38:16Z</time>
      </trkpt>
      <trkpt lat="42.45492" lon="2.06399">
        <ele>1436</ele>
        <time>2011-07-24T14:38:24Z</time>
      </trkpt>
      <trkpt lat="42.45486" lon="2.06389">
        <ele>1436</ele>
        <time>2011-07-24T14:38:34Z</time>
      </trkpt>
      <trkpt lat="42.45481" lon="2.06378">
        <ele>1436</ele>
        <time>2011-07-24T14:38:43Z</time>
      </trkpt>
      <trkpt lat="42.45477" lon="2.06367">
        <ele>1436</ele>
        <time>2011-07-24T14:38:52Z</time>
      </trkpt>
      <trkpt lat="42.45472" lon="2.06357">
        <ele>1436</ele>
        <time>2011-07-24T14:39:02Z</time>
      </trkpt>
      <trkpt lat="42.45465" lon="2.06347">
        <ele>1436</ele>
        <time>2011-07-24T14:39:11Z</time>
      </trkpt>
      <trkpt lat="42.45457" lon="2.06339">
        <ele>1436</ele>
        <time>2011-07-24T14:39:19Z</time>
      </trkpt>
      <trkpt lat="42.45457" lon="2.06324">
        <ele>1436</ele>
        <time>2011-07-24T14:39:27Z</time>
      </trkpt>
      <trkpt lat="42.45456" lon="2.06312">
        <ele>1436</ele>
        <time>2011-07-24T14:39:41Z</time>
      </trkpt>
      <trkpt lat="42.45461" lon="2.06298">
        <ele>1436</ele>
        <time>2011-07-24T14:39:46Z</time>
      </trkpt>
      <trkpt lat="42.45459" lon="2.06285">
        <ele>1436</ele>
        <time>2011-07-24T14:39:58Z</time>
      </trkpt>
      <trkpt lat="42.4546" lon="2.06271">
        <ele>1436</ele>
        <time>2011-07-24T14:40:04Z</time>
      </trkpt>
      <trkpt lat="42.45465" lon="2.0626">
        <ele>1430</ele>
        <time>2011-07-24T14:40:12Z</time>
      </trkpt>
      <trkpt lat="42.45466" lon="2.06246">
        <ele>1430</ele>
        <time>2011-07-24T14:40:19Z</time>
      </trkpt>
      <trkpt lat="42.45469" lon="2.06233">
        <ele>1430</ele>
        <time>2011-07-24T14:40:28Z</time>
      </trkpt>
      <trkpt lat="42.45467" lon="2.0622">
        <ele>1430</ele>
        <time>2011-07-24T14:40:39Z</time>
      </trkpt>
      <trkpt lat="42.45467" lon="2.06206">
        <ele>1430</ele>
        <time>2011-07-24T14:40:47Z</time>
      </trkpt>
      <trkpt lat="42.45463" lon="2.06193">
        <ele>1430</ele>
        <time>2011-07-24T14:40:54Z</time>
      </trkpt>
      <trkpt lat="42.45455" lon="2.06187">
        <ele>1422</ele>
        <time>2011-07-24T14:41:01Z</time>
      </trkpt>
      <trkpt lat="42.45448" lon="2.06177">
        <ele>1422</ele>
        <time>2011-07-24T14:41:11Z</time>
      </trkpt>
      <trkpt lat="42.45439" lon="2.06168">
        <ele>1422</ele>
        <time>2011-07-24T14:41:21Z</time>
      </trkpt>
      <trkpt lat="42.45439" lon="2.06154">
        <ele>1415</ele>
        <time>2011-07-24T14:41:28Z</time>
      </trkpt>
      <trkpt lat="42.45438" lon="2.06167">
        <ele>1415</ele>
        <time>2011-07-24T14:42:41Z</time>
      </trkpt>
      <trkpt lat="42.45441" lon="2.06179">
        <ele>1415</ele>
        <time>2011-07-24T14:43:00Z</time>
      </trkpt>
      <trkpt lat="42.45449" lon="2.06187">
        <ele>1415</ele>
        <time>2011-07-24T14:43:07Z</time>
      </trkpt>
      <trkpt lat="42.45458" lon="2.06188">
        <ele>1423</ele>
        <time>2011-07-24T14:43:18Z</time>
      </trkpt>
      <trkpt lat="42.45465" lon="2.06178">
        <ele>1423</ele>
        <time>2011-07-24T14:43:38Z</time>
      </trkpt>
      <trkpt lat="42.45469" lon="2.06166">
        <ele>1423</ele>
        <time>2011-07-24T14:43:48Z</time>
      </trkpt>
      <trkpt lat="42.45474" lon="2.06155">
        <ele>1418</ele>
        <time>2011-07-24T14:43:58Z</time>
      </trkpt>
      <trkpt lat="42.45481" lon="2.06145">
        <ele>1418</ele>
        <time>2011-07-24T14:44:06Z</time>
      </trkpt>
      <trkpt lat="42.45484" lon="2.06134">
        <ele>1418</ele>
        <time>2011-07-24T14:44:13Z</time>
      </trkpt>
      <trkpt lat="42.45481" lon="2.06121">
        <ele>1418</ele>
        <time>2011-07-24T14:44:21Z</time>
      </trkpt>
      <trkpt lat="42.45476" lon="2.06109">
        <ele>1418</ele>
        <time>2011-07-24T14:44:36Z</time>
      </trkpt>
      <trkpt lat="42.45469" lon="2.061">
        <ele>1418</ele>
        <time>2011-07-24T14:44:43Z</time>
      </trkpt>
      <trkpt lat="42.45464" lon="2.06088">
        <ele>1418</ele>
        <time>2011-07-24T14:44:51Z</time>
      </trkpt>
      <trkpt lat="42.45455" lon="2.06093">
        <ele>1411</ele>
        <time>2011-07-24T14:45:10Z</time>
      </trkpt>
      <trkpt lat="42.45445" lon="2.06095">
        <ele>1411</ele>
        <time>2011-07-24T14:45:19Z</time>
      </trkpt>
      <trkpt lat="42.45436" lon="2.06095">
        <ele>1411</ele>
        <time>2011-07-24T14:45:29Z</time>
      </trkpt>
      <trkpt lat="42.45426" lon="2.06099">
        <ele>1411</ele>
        <time>2011-07-24T14:45:36Z</time>
      </trkpt>
      <trkpt lat="42.45419" lon="2.06109">
        <ele>1411</ele>
        <time>2011-07-24T14:45:44Z</time>
      </trkpt>
      <trkpt lat="42.45411" lon="2.06118">
        <ele>1411</ele>
        <time>2011-07-24T14:45:51Z</time>
      </trkpt>
      <trkpt lat="42.45402" lon="2.06121">
        <ele>1411</ele>
        <time>2011-07-24T14:46:01Z</time>
      </trkpt>
      <trkpt lat="42.45393" lon="2.06117">
        <ele>1411</ele>
        <time>2011-07-24T14:46:31Z</time>
      </trkpt>
      <trkpt lat="42.45388" lon="2.06105">
        <ele>1411</ele>
        <time>2011-07-24T14:46:41Z</time>
      </trkpt>
      <trkpt lat="42.45385" lon="2.06093">
        <ele>1411</ele>
        <time>2011-07-24T14:46:50Z</time>
      </trkpt>
      <trkpt lat="42.45384" lon="2.06081">
        <ele>1411</ele>
        <time>2011-07-24T14:46:59Z</time>
      </trkpt>
      <trkpt lat="42.45381" lon="2.06069">
        <ele>1411</ele>
        <time>2011-07-24T14:47:08Z</time>
      </trkpt>
      <trkpt lat="42.45374" lon="2.06059">
        <ele>1411</ele>
        <time>2011-07-24T14:47:18Z</time>
      </trkpt>
      <trkpt lat="42.45366" lon="2.06053">
        <ele>1411</ele>
        <time>2011-07-24T14:47:31Z</time>
      </trkpt>
      <trkpt lat="42.45357" lon="2.06047">
        <ele>1404</ele>
        <time>2011-07-24T14:47:40Z</time>
      </trkpt>
      <trkpt lat="42.4535" lon="2.06039">
        <ele>1404</ele>
        <time>2011-07-24T14:47:47Z</time>
      </trkpt>
      <trkpt lat="42.45342" lon="2.06031">
        <ele>1399</ele>
        <time>2011-07-24T14:47:54Z</time>
      </trkpt>
      <trkpt lat="42.45335" lon="2.06022">
        <ele>1399</ele>
        <time>2011-07-24T14:48:16Z</time>
      </trkpt>
      <trkpt lat="42.45327" lon="2.06016">
        <ele>1399</ele>
        <time>2011-07-24T14:48:55Z</time>
      </trkpt>
      <trkpt lat="42.4532" lon="2.06005">
        <ele>1399</ele>
        <time>2011-07-24T14:49:03Z</time>
      </trkpt>
      <trkpt lat="42.45314" lon="2.05996">
        <ele>1399</ele>
        <time>2011-07-24T14:49:13Z</time>
      </trkpt>
      <trkpt lat="42.45305" lon="2.05991">
        <ele>1399</ele>
        <time>2011-07-24T14:49:21Z</time>
      </trkpt>
      <trkpt lat="42.45295" lon="2.05985">
        <ele>1393</ele>
        <time>2011-07-24T14:49:29Z</time>
      </trkpt>
      <trkpt lat="42.45289" lon="2.05974">
        <ele>1393</ele>
        <time>2011-07-24T14:49:41Z</time>
      </trkpt>
      <trkpt lat="42.45281" lon="2.05967">
        <ele>1393</ele>
        <time>2011-07-24T14:49:46Z</time>
      </trkpt>
      <trkpt lat="42.45272" lon="2.05964">
        <ele>1393</ele>
        <time>2011-07-24T14:49:53Z</time>
      </trkpt>
      <trkpt lat="42.45265" lon="2.05956">
        <ele>1393</ele>
        <time>2011-07-24T14:50:08Z</time>
      </trkpt>
      <trkpt lat="42.45255" lon="2.05962">
        <ele>1393</ele>
        <time>2011-07-24T14:50:21Z</time>
      </trkpt>
      <trkpt lat="42.4525" lon="2.05973">
        <ele>1393</ele>
        <time>2011-07-24T14:50:28Z</time>
      </trkpt>
      <trkpt lat="42.45255" lon="2.05983">
        <ele>1393</ele>
        <time>2011-07-24T14:50:52Z</time>
      </trkpt>
      <trkpt lat="42.45247" lon="2.0599">
        <ele>1393</ele>
        <time>2011-07-24T14:51:10Z</time>
      </trkpt>
      <trkpt lat="42.45239" lon="2.05995">
        <ele>1399</ele>
        <time>2011-07-24T14:51:15Z</time>
      </trkpt>
      <trkpt lat="42.45248" lon="2.05986">
        <ele>1399</ele>
        <time>2011-07-24T14:51:28Z</time>
      </trkpt>
      <trkpt lat="42.45257" lon="2.0598">
        <ele>1399</ele>
        <time>2011-07-24T14:51:39Z</time>
      </trkpt>
      <trkpt lat="42.45247" lon="2.05983">
        <ele>1399</ele>
        <time>2011-07-24T14:51:54Z</time>
      </trkpt>
      <trkpt lat="42.45238" lon="2.05983">
        <ele>1399</ele>
        <time>2011-07-24T14:52:00Z</time>
      </trkpt>
      <trkpt lat="42.45233" lon="2.05994">
        <ele>1399</ele>
        <time>2011-07-24T14:52:12Z</time>
      </trkpt>
      <trkpt lat="42.45224" lon="2.05998">
        <ele>1399</ele>
        <time>2011-07-24T14:52:18Z</time>
      </trkpt>
      <trkpt lat="42.45219" lon="2.06008">
        <ele>1399</ele>
        <time>2011-07-24T14:52:25Z</time>
      </trkpt>
      <trkpt lat="42.45212" lon="2.06017">
        <ele>1399</ele>
        <time>2011-07-24T14:52:35Z</time>
      </trkpt>
      <trkpt lat="42.45204" lon="2.06028">
        <ele>1399</ele>
        <time>2011-07-24T14:52:45Z</time>
      </trkpt>
      <trkpt lat="42.45197" lon="2.06038">
        <ele>1409</ele>
        <time>2011-07-24T14:52:56Z</time>
      </trkpt>
      <trkpt lat="42.45187" lon="2.06048">
        <ele>1409</ele>
        <time>2011-07-24T14:53:04Z</time>
      </trkpt>
      <trkpt lat="42.45184" lon="2.0606">
        <ele>1418</ele>
        <time>2011-07-24T14:53:13Z</time>
      </trkpt>
      <trkpt lat="42.45181" lon="2.06072">
        <ele>1418</ele>
        <time>2011-07-24T14:53:19Z</time>
      </trkpt>
      <trkpt lat="42.45179" lon="2.06085">
        <ele>1418</ele>
        <time>2011-07-24T14:53:27Z</time>
      </trkpt>
      <trkpt lat="42.45177" lon="2.06098">
        <ele>1418</ele>
        <time>2011-07-24T14:53:37Z</time>
      </trkpt>
      <trkpt lat="42.45168" lon="2.06101">
        <ele>1409</ele>
        <time>2011-07-24T14:53:42Z</time>
      </trkpt>
      <trkpt lat="42.45161" lon="2.06089">
        <ele>1409</ele>
        <time>2011-07-24T14:53:59Z</time>
      </trkpt>
      <trkpt lat="42.45171" lon="2.0609">
        <ele>1395</ele>
        <time>2011-07-24T14:54:18Z</time>
      </trkpt>
      <trkpt lat="42.45165" lon="2.06099">
        <ele>1402</ele>
        <time>2011-07-24T14:54:36Z</time>
      </trkpt>
      <trkpt lat="42.45163" lon="2.06111">
        <ele>1387</ele>
        <time>2011-07-24T14:55:39Z</time>
      </trkpt>
      <trkpt lat="42.45172" lon="2.06106">
        <ele>1387</ele>
        <time>2011-07-24T14:55:49Z</time>
      </trkpt>
      <trkpt lat="42.45179" lon="2.06098">
        <ele>1387</ele>
        <time>2011-07-24T14:55:59Z</time>
      </trkpt>
      <trkpt lat="42.45179" lon="2.06085">
        <ele>1387</ele>
        <time>2011-07-24T14:56:32Z</time>
      </trkpt>
      <trkpt lat="42.45189" lon="2.0608">
        <ele>1398</ele>
        <time>2011-07-24T14:56:41Z</time>
      </trkpt>
      <trkpt lat="42.45193" lon="2.06068">
        <ele>1398</ele>
        <time>2011-07-24T14:56:49Z</time>
      </trkpt>
      <trkpt lat="42.45193" lon="2.06056">
        <ele>1398</ele>
        <time>2011-07-24T14:56:58Z</time>
      </trkpt>
      <trkpt lat="42.45201" lon="2.06046">
        <ele>1398</ele>
        <time>2011-07-24T14:57:13Z</time>
      </trkpt>
      <trkpt lat="42.45207" lon="2.06035">
        <ele>1398</ele>
        <time>2011-07-24T14:57:24Z</time>
      </trkpt>
      <trkpt lat="42.45215" lon="2.06028">
        <ele>1392</ele>
        <time>2011-07-24T14:57:31Z</time>
      </trkpt>
      <trkpt lat="42.45223" lon="2.0602">
        <ele>1392</ele>
        <time>2011-07-24T14:57:39Z</time>
      </trkpt>
      <trkpt lat="42.4523" lon="2.06011">
        <ele>1392</ele>
        <time>2011-07-24T14:57:47Z</time>
      </trkpt>
      <trkpt lat="42.45238" lon="2.06001">
        <ele>1392</ele>
        <time>2011-07-24T14:57:58Z</time>
      </trkpt>
      <trkpt lat="42.45245" lon="2.05993">
        <ele>1392</ele>
        <time>2011-07-24T14:58:07Z</time>
      </trkpt>
      <trkpt lat="42.45253" lon="2.05982">
        <ele>1392</ele>
        <time>2011-07-24T14:58:16Z</time>
      </trkpt>
      <trkpt lat="42.4526" lon="2.05973">
        <ele>1392</ele>
        <time>2011-07-24T14:58:28Z</time>
      </trkpt>
      <trkpt lat="42.45263" lon="2.05959">
        <ele>1392</ele>
        <time>2011-07-24T14:58:40Z</time>
      </trkpt>
      <trkpt lat="42.45267" lon="2.05948">
        <ele>1392</ele>
        <time>2011-07-24T14:58:47Z</time>
      </trkpt>
      <trkpt lat="42.45268" lon="2.05935">
        <ele>1392</ele>
        <time>2011-07-24T14:58:57Z</time>
      </trkpt>
    </trkseg>
  </trk>
</gpx>